Clarion, IA (50525)

6:04 PM CDT on March 25, 2017 (GMT -0500)
Clarion Municipal | | Change Station

Elev 1161 ft 42.74 °N, 93.76 °W | Updated 9 minutes ago

Overcast
Overcast
39 °F
Feels Like 30 °F
N
17
Wind Variable Wind from ENE

Today
High -- | Low -- °F
--% Chance of Precip.
Yesterday
High -- | Low -- °F
Precip. -- in
Pressure 29.95 in
Visibility 10.0 miles
Clouds Overcast 800 ft
Windchill 30 °F
Dew Point 39 °F
Humidity 100%
Rainfall 0.01 in
Snow Depth Not available.
7:08 AM 7:33 PM
Waning Crescent, 6% visible
METAR KCAV 252255Z AUTO 06015KT 10SM OVC008 04/04 A2995 RMK AO2 PWINO
Pressure 29.95 in
Visibility 10.0 miles
Clouds Overcast 800 ft
Windchill 30 °F
Dew Point 39 °F
Humidity 100%
Rainfall 0.01 in
Snow Depth Not available.
7:08 AM 7:33 PM
Waning Crescent, 6% visible
METAR KCAV 252255Z AUTO 06015KT 10SM OVC008 04/04 A2995 RMK AO2 PWINO

Get Severe Weather Alerts

Thanks for signing up!

Be on the lookout for a verification email in your inbox.

You'll start receiving the daily forecast at 8 AM.

×

10-Day Weather Forecast

Almanac

Astronomy

Mar. 25, 2017 Rise Set
Actual Time
Civil Twilight
Nautical Twilight
Astronomical Twilight
Moon
Length of Visible Light
Length of Day
Tomorrow will be .
, % of the Moon is Illuminated

Today's Extremes

State Highs State Lows

Community

WunderPhotos

Upload Photos

1,962,540 photos uploaded!

WunderBlog® & News

Nearby

Air Quality

  Air Quality AQ Index Pollutant
Not available.

Snow Depth

Station Depth Elevation

Earthquake Activity

City Distance Mag. Time & Date
Minimum magnitude displayed is 2.5.

Earthquake Activity

City Distance Mag. Time & Date
Minimum magnitude displayed is 2.5.

Coastal Water Temperatures

Place Temperature

Stations

Nearby Weather Stations

Station Location Temp. Windchill Dew Point Humidity Wind Precip. Elev Updated Type
                   

Watches & Warnings

There are currently no watches in effect.